createdAt,value
2018-05-17T00:00:20.592Z,3.77
2018-05-17T00:02:48.258Z,4.83
2018-05-17T00:05:15.861Z,4.97
2018-05-17T00:07:44.273Z,4.57
2018-05-17T00:10:11.931Z,4.77
2018-05-17T00:12:39.595Z,4.97
2018-05-17T00:15:07.198Z,4.87
2018-05-17T00:17:34.805Z,4.60
2018-05-17T00:20:02.422Z,4.87
2018-05-17T00:22:30.021Z,4.27
2018-05-17T00:24:59.317Z,5.17
2018-05-17T00:27:27.793Z,4.37
2018-05-17T00:29:56.207Z,4.90
2018-05-17T00:32:23.867Z,4.40
2018-05-17T00:34:51.463Z,4.83
2018-05-17T00:37:19.079Z,4.80
2018-05-17T00:39:47.482Z,4.40
2018-05-17T00:42:16.382Z,4.97
2018-05-17T00:44:44.025Z,4.57
2018-05-17T00:47:13.323Z,5.10
2018-05-17T00:49:41.706Z,5.83
2018-05-17T00:52:10.200Z,5.20
2018-05-17T00:54:39.249Z,5.33
2018-05-17T00:57:06.885Z,5.83
2018-05-17T00:59:34.757Z,4.87
2018-05-17T01:02:02.829Z,5.60
2018-05-17T01:04:31.913Z,5.17
2018-05-17T01:07:03.708Z,6.00
2018-05-17T01:09:31.508Z,5.40
2018-05-17T01:11:59.090Z,4.70
2018-05-17T01:14:27.468Z,5.40
2018-05-17T01:16:55.762Z,5.60
2018-05-17T01:19:27.293Z,5.40
2018-05-17T01:21:55.700Z,5.30
2018-05-17T01:24:23.335Z,5.53
2018-05-17T01:26:51.788Z,6.27
2018-05-17T01:29:19.510Z,5.30
2018-05-17T01:31:47.091Z,5.37
2018-05-17T01:34:15.046Z,5.60
2018-05-17T01:36:54.564Z,5.27
2018-05-17T01:39:22.971Z,5.37
2018-05-17T01:41:50.599Z,5.27
2018-05-17T01:44:18.256Z,5.80
2018-05-17T01:46:45.881Z,5.47
2018-05-17T01:49:13.514Z,4.83
2018-05-17T01:51:42.166Z,4.80
2018-05-17T01:54:09.767Z,4.93
2018-05-17T01:56:37.411Z,4.73
2018-05-17T01:59:05.131Z,4.30
2018-05-17T02:01:32.794Z,4.73
2018-05-17T02:04:00.410Z,4.67
2018-05-17T02:06:29.170Z,5.23
2018-05-17T02:08:58.509Z,4.90
2018-05-17T02:11:27.714Z,4.83
2018-05-17T02:13:55.414Z,5.13
2018-05-17T02:16:23.034Z,5.43
2018-05-17T02:18:50.692Z,4.63
2018-05-17T02:21:18.350Z,5.30
2018-05-17T02:23:45.998Z,5.17
2018-05-17T02:26:13.587Z,5.23
2018-05-17T02:28:41.521Z,5.70
2018-05-17T02:31:09.116Z,4.97
2018-05-17T02:33:36.765Z,5.03
2018-05-17T02:36:05.706Z,5.30
2018-05-17T02:38:34.080Z,4.73
2018-05-17T02:41:02.427Z,5.00
2018-05-17T02:43:30.023Z,5.57
2018-05-17T02:45:58.398Z,4.70
2018-05-17T02:48:26.763Z,5.03
2018-05-17T02:50:54.379Z,4.87
2018-05-17T02:53:21.983Z,5.40
2018-05-17T02:55:49.584Z,5.17
2018-05-17T02:58:17.216Z,5.43
2018-05-17T03:00:45.607Z,4.93
2018-05-17T03:03:13.211Z,5.37
2018-05-17T03:05:40.821Z,5.30
2018-05-17T03:08:08.437Z,5.07
2018-05-17T03:10:36.032Z,4.73
2018-05-17T03:13:06.478Z,4.47
2018-05-17T03:15:34.093Z,3.73
2018-05-17T03:18:01.694Z,5.20
2018-05-17T03:20:29.765Z,5.03
2018-05-17T03:22:57.358Z,4.70
2018-05-17T03:25:25.692Z,5.70
2018-05-17T03:27:53.324Z,6.03
2018-05-17T03:30:20.909Z,5.83
2018-05-17T03:32:48.540Z,5.63
2018-05-17T03:35:16.225Z,6.10
2018-05-17T03:37:43.853Z,5.90
2018-05-17T03:40:12.233Z,5.80
2018-05-17T03:42:39.870Z,5.57
2018-05-17T03:45:07.464Z,5.63
2018-05-17T03:47:35.822Z,5.53
2018-05-17T03:50:03.507Z,5.50
2018-05-17T03:52:32.449Z,5.67
2018-05-17T03:55:00.093Z,5.80
2018-05-17T03:57:27.661Z,5.97
2018-05-17T03:59:55.333Z,6.40
2018-05-17T04:02:35.725Z,6.63
2018-05-17T04:05:15.804Z,5.40
2018-05-17T04:07:43.478Z,5.67
2018-05-17T04:10:11.095Z,5.10
2018-05-17T04:12:38.987Z,4.93
2018-05-17T04:15:06.699Z,5.50
2018-05-17T04:17:34.310Z,5.77
2018-05-17T04:20:01.894Z,5.50
2018-05-17T04:22:29.505Z,4.93
2018-05-17T04:24:57.116Z,5.87
2018-05-17T04:27:24.723Z,4.97
2018-05-17T04:29:52.419Z,4.83
2018-05-17T04:32:20.034Z,5.63
2018-05-17T04:34:48.358Z,4.93
2018-05-17T04:37:15.961Z,4.77
2018-05-17T04:39:43.601Z,4.93
2018-05-17T04:42:11.185Z,3.80
2018-05-17T04:44:38.795Z,4.93
2018-05-17T04:47:06.673Z,5.40
2018-05-17T04:49:34.189Z,5.13
2018-05-17T04:52:01.900Z,5.53
2018-05-17T04:54:30.278Z,5.77
2018-05-17T04:56:57.951Z,5.90
2018-05-17T04:59:25.533Z,6.00
2018-05-17T05:01:53.164Z,5.83
2018-05-17T05:04:21.140Z,5.43
2018-05-17T05:06:48.737Z,6.00
2018-05-17T05:09:16.360Z,6.57
2018-05-17T05:11:43.988Z,5.00
2018-05-17T05:14:11.582Z,5.87
2018-05-17T05:16:39.194Z,5.97
2018-05-17T05:19:07.432Z,5.27
2018-05-17T05:21:35.023Z,5.87
2018-05-17T05:24:02.641Z,5.30
2018-05-17T05:26:30.997Z,5.90
2018-05-17T05:28:58.669Z,4.77
2018-05-17T05:31:26.647Z,5.23
2018-05-17T05:33:55.210Z,5.03
2018-05-17T05:36:22.782Z,4.97
2018-05-17T05:38:50.396Z,4.70
2018-05-17T05:41:18.649Z,4.60
2018-05-17T05:43:46.878Z,4.57
2018-05-17T05:46:14.476Z,4.73
2018-05-17T05:48:42.907Z,4.57
2018-05-17T05:51:10.562Z,4.67
2018-05-17T05:53:38.182Z,5.10
2018-05-17T05:56:05.860Z,5.73
2018-05-17T05:58:33.429Z,4.93
2018-05-17T06:01:03.177Z,4.70
2018-05-17T06:03:30.761Z,5.83
2018-05-17T06:05:58.420Z,5.10
2018-05-17T06:08:26.371Z,5.10
2018-05-17T06:10:54.081Z,5.27
2018-05-17T06:13:21.712Z,5.13
2018-05-17T06:15:49.889Z,4.87
2018-05-17T06:18:17.578Z,5.60
2018-05-17T06:20:45.254Z,4.53
2018-05-17T06:23:12.989Z,4.77
2018-05-17T06:25:40.732Z,4.83
2018-05-17T06:28:08.544Z,4.80
2018-05-17T06:30:37.002Z,5.00
2018-05-17T06:33:04.665Z,4.77
2018-05-17T06:35:32.835Z,5.93
2018-05-17T06:38:00.479Z,5.23
2018-05-17T06:40:28.086Z,5.33
2018-05-17T06:42:55.903Z,4.83
2018-05-17T06:45:23.567Z,5.30
2018-05-17T06:47:52.096Z,4.20
2018-05-17T06:50:19.762Z,4.57
2018-05-17T06:52:47.381Z,4.53
2018-05-17T06:55:15.769Z,4.63
2018-05-17T06:57:43.968Z,5.03
2018-05-17T07:00:12.005Z,4.70
2018-05-17T07:02:40.394Z,4.20
2018-05-17T07:05:08.109Z,4.60
2018-05-17T07:07:36.946Z,5.80
2018-05-17T07:10:05.936Z,5.00
2018-05-17T07:12:34.064Z,4.20
2018-05-17T07:15:02.273Z,4.73
2018-05-17T07:17:30.054Z,4.80
2018-05-17T07:19:57.765Z,4.87
2018-05-17T07:22:25.381Z,6.20
2018-05-17T07:24:53.761Z,5.73
2018-05-17T07:27:22.185Z,4.73
2018-05-17T07:29:49.873Z,4.87
2018-05-17T07:32:18.145Z,4.57
2018-05-17T07:34:45.765Z,4.10
2018-05-17T07:37:14.109Z,4.53
2018-05-17T07:39:41.689Z,4.10
2018-05-17T07:42:09.305Z,4.80
2018-05-17T07:44:36.895Z,3.73
2018-05-17T07:47:04.515Z,4.70
2018-05-17T07:49:32.114Z,4.70
2018-05-17T07:51:59.860Z,4.83
2018-05-17T07:54:27.701Z,4.27
2018-05-17T07:56:55.291Z,4.40
2018-05-17T07:59:22.917Z,4.03
2018-05-17T08:01:50.540Z,4.30
2018-05-17T08:04:18.169Z,4.27
2018-05-17T08:06:46.677Z,4.30
2018-05-17T08:09:15.960Z,5.33
2018-05-17T08:11:43.537Z,4.70
2018-05-17T08:14:11.161Z,3.30
2018-05-17T08:16:38.772Z,3.97
2018-05-17T08:19:06.542Z,3.87
2018-05-17T08:21:34.199Z,4.27
2018-05-17T08:24:01.806Z,4.57
2018-05-17T08:26:29.397Z,3.57
2018-05-17T08:28:57.067Z,4.50
2018-05-17T08:31:25.437Z,4.03
2018-05-17T08:33:53.326Z,4.10
2018-05-17T08:36:20.988Z,4.20
2018-05-17T08:38:49.130Z,4.13
2018-05-17T08:41:17.875Z,3.60
2018-05-17T08:43:45.507Z,4.07
2018-05-17T08:46:13.123Z,4.03
2018-05-17T08:48:40.744Z,3.57
2018-05-17T08:51:08.424Z,3.50
2018-05-17T08:53:36.031Z,3.40
2018-05-17T08:56:03.664Z,3.70
2018-05-17T08:58:31.257Z,3.30
2018-05-17T09:00:59.665Z,3.77
2018-05-17T09:03:27.270Z,3.77
2018-05-17T09:05:54.903Z,3.87
2018-05-17T09:08:22.473Z,3.90
2018-05-17T09:10:50.055Z,3.60
2018-05-17T09:13:17.678Z,4.30
2018-05-17T09:15:46.069Z,4.03
2018-05-17T09:18:13.642Z,3.77
2018-05-17T09:20:41.224Z,3.40
2018-05-17T09:23:10.173Z,3.33
2018-05-17T09:25:38.573Z,3.90
2018-05-17T09:28:06.175Z,3.43
2018-05-17T09:30:33.772Z,3.73
2018-05-17T09:33:01.366Z,3.23
2018-05-17T09:35:28.953Z,3.90
2018-05-17T09:37:56.560Z,3.00
2018-05-17T09:40:25.022Z,3.50
2018-05-17T09:42:52.607Z,2.77
2018-05-17T09:45:20.263Z,2.30
2018-05-17T09:47:47.842Z,2.90
2018-05-17T09:50:16.226Z,2.60
2018-05-17T09:52:43.939Z,2.13
2018-05-17T09:55:12.410Z,2.17
2018-05-17T09:57:42.223Z,2.10
2018-05-17T10:00:09.936Z,1.93
2018-05-17T10:02:39.242Z,2.03
2018-05-17T10:05:06.874Z,1.80
2018-05-17T10:07:34.444Z,2.00
2018-05-17T10:10:02.096Z,1.70
2018-05-17T10:12:29.694Z,2.07
2018-05-17T10:14:57.365Z,2.00
2018-05-17T10:17:25.093Z,2.07
2018-05-17T10:19:52.727Z,1.93
2018-05-17T10:22:22.307Z,1.90
2018-05-17T10:24:49.903Z,1.83
2018-05-17T10:27:17.499Z,2.30
2018-05-17T10:29:45.627Z,1.93
2018-05-17T10:32:14.419Z,2.17
2018-05-17T10:34:42.805Z,2.07
2018-05-17T10:37:11.165Z,2.10
2018-05-17T10:39:39.590Z,2.07
2018-05-17T10:42:07.283Z,2.30
2018-05-17T10:44:34.974Z,2.30
2018-05-17T10:47:02.606Z,2.33
2018-05-17T10:49:33.442Z,1.90
2018-05-17T10:52:01.061Z,2.23
2018-05-17T10:54:29.440Z,2.03
2018-05-17T10:56:57.100Z,2.40
2018-05-17T10:59:25.633Z,2.33
2018-05-17T11:01:53.579Z,2.27
2018-05-17T11:04:21.237Z,2.10
2018-05-17T11:06:49.607Z,2.40
2018-05-17T11:09:17.190Z,2.10
2018-05-17T11:11:44.813Z,2.17
2018-05-17T11:14:12.491Z,2.00
2018-05-17T11:16:40.857Z,2.00
2018-05-17T11:19:08.427Z,2.00
2018-05-17T11:21:36.841Z,2.37
2018-05-17T11:24:04.427Z,2.47
2018-05-17T11:26:32.009Z,2.07
2018-05-17T11:28:59.622Z,2.10
2018-05-17T11:31:27.978Z,2.00
2018-05-17T11:33:56.033Z,2.23
2018-05-17T11:36:23.620Z,2.03
2018-05-17T11:38:51.225Z,2.30
2018-05-17T11:41:18.798Z,1.83
2018-05-17T11:43:47.679Z,1.90
2018-05-17T11:46:15.665Z,2.17
2018-05-17T11:48:43.270Z,1.93
2018-05-17T11:51:10.895Z,2.10
2018-05-17T11:53:39.244Z,1.90
2018-05-17T11:56:06.850Z,2.27
2018-05-17T11:58:35.363Z,1.90
2018-05-17T12:01:02.966Z,2.00
2018-05-17T12:03:30.550Z,2.00
2018-05-17T12:05:58.171Z,2.20
2018-05-17T12:08:26.554Z,1.90
2018-05-17T12:10:54.181Z,2.37
2018-05-17T12:13:22.534Z,2.10
2018-05-17T12:15:50.914Z,2.30
2018-05-17T12:18:18.517Z,2.00
2018-05-17T12:20:46.083Z,2.30
2018-05-17T12:23:14.581Z,2.20
2018-05-17T12:25:42.379Z,2.00
2018-05-17T12:28:10.065Z,2.13
2018-05-17T12:30:37.657Z,1.90
2018-05-17T12:33:05.273Z,1.90
2018-05-17T12:35:32.985Z,1.67
2018-05-17T12:38:00.770Z,2.00
2018-05-17T12:40:29.574Z,1.90
2018-05-17T12:42:57.933Z,1.83
2018-05-17T12:45:25.550Z,2.10
2018-05-17T12:47:53.131Z,2.30
2018-05-17T12:50:20.769Z,2.37
2018-05-17T12:52:49.772Z,2.30
2018-05-17T12:55:17.402Z,2.37
2018-05-17T12:57:45.930Z,2.33
2018-05-17T13:00:13.559Z,1.90
2018-05-17T13:02:41.929Z,2.20
2018-05-17T13:05:21.313Z,1.90
2018-05-17T13:07:49.169Z,2.13
2018-05-17T13:10:16.755Z,1.90
2018-05-17T13:12:44.366Z,2.20
2018-05-17T13:15:12.697Z,2.37
2018-05-17T13:17:40.274Z,1.93
2018-05-17T13:20:08.646Z,2.30
2018-05-17T13:22:36.237Z,1.93
2018-05-17T13:25:03.905Z,2.00
2018-05-17T13:27:31.510Z,2.10
2018-05-17T13:29:59.077Z,2.10
2018-05-17T13:32:26.688Z,2.07
2018-05-17T13:34:54.296Z,1.80
2018-05-17T13:37:21.963Z,1.87
2018-05-17T13:39:49.475Z,1.90
2018-05-17T13:42:17.084Z,2.03
2018-05-17T13:44:44.693Z,2.17
2018-05-17T13:47:12.276Z,2.00
2018-05-17T13:49:40.646Z,2.00
2018-05-17T13:52:08.213Z,2.27
2018-05-17T13:54:35.876Z,2.30
2018-05-17T13:57:03.509Z,2.00
2018-05-17T13:59:31.205Z,2.60
2018-05-17T14:01:58.773Z,2.60
2018-05-17T14:04:27.628Z,1.87
2018-05-17T14:06:55.311Z,2.30
2018-05-17T14:09:22.925Z,2.20
2018-05-17T14:11:50.541Z,1.83
2018-05-17T14:14:18.161Z,2.23
2018-05-17T14:16:45.767Z,2.10
2018-05-17T14:19:13.384Z,1.97
2018-05-17T14:21:40.973Z,2.00
2018-05-17T14:24:08.634Z,2.00
2018-05-17T14:26:38.757Z,2.20
2018-05-17T14:29:06.965Z,2.10
2018-05-17T14:31:34.591Z,2.07
2018-05-17T14:34:02.662Z,1.90
2018-05-17T14:36:31.095Z,2.23
2018-05-17T14:38:59.726Z,2.00
2018-05-17T14:41:28.643Z,2.37
2018-05-17T14:43:56.247Z,2.10
2018-05-17T14:46:23.869Z,2.33
2018-05-17T14:48:51.497Z,2.30
2018-05-17T14:51:19.110Z,2.20
2018-05-17T14:53:46.693Z,2.63
2018-05-17T14:56:14.315Z,2.10
2018-05-17T14:58:41.936Z,1.70
2018-05-17T15:01:10.327Z,2.03
2018-05-17T15:03:37.898Z,1.80
2018-05-17T15:06:05.511Z,1.90
2018-05-17T15:08:33.084Z,2.27
2018-05-17T15:11:00.690Z,2.10
2018-05-17T15:13:28.293Z,2.10
2018-05-17T15:15:55.902Z,1.93
2018-05-17T15:18:23.470Z,2.00
2018-05-17T15:20:51.810Z,2.30
2018-05-17T15:23:19.409Z,2.13
2018-05-17T15:25:47.781Z,2.20
2018-05-17T15:28:15.365Z,1.77
2018-05-17T15:30:42.991Z,1.70
2018-05-17T15:33:10.826Z,2.40
2018-05-17T15:35:38.469Z,1.87
2018-05-17T15:38:06.849Z,1.80
2018-05-17T15:40:34.430Z,1.83
2018-05-17T15:43:02.021Z,2.07
2018-05-17T15:45:29.622Z,1.85
2018-05-17T15:47:57.247Z,1.83
2018-05-17T15:50:24.818Z,2.00
2018-05-17T15:52:52.395Z,2.55
2018-05-17T15:55:20.003Z,2.10
2018-05-17T15:57:47.598Z,2.33
2018-05-17T16:00:15.239Z,2.17
2018-05-17T16:02:42.831Z,2.30
2018-05-17T16:05:10.449Z,2.00
2018-05-17T16:07:38.058Z,2.40
2018-05-17T16:10:05.677Z,2.30
2018-05-17T16:12:33.241Z,2.20
2018-05-17T16:15:01.053Z,2.17
2018-05-17T16:17:29.389Z,2.00
2018-05-17T16:19:57.025Z,1.85
2018-05-17T16:22:25.392Z,2.05
2018-05-17T16:24:53.757Z,2.42
2018-05-17T16:27:21.411Z,2.53
2018-05-17T16:29:49.469Z,2.25
2018-05-17T16:32:17.070Z,2.80
2018-05-17T16:34:44.677Z,2.00
2018-05-17T16:37:13.489Z,2.33
2018-05-17T16:39:41.096Z,2.03
2018-05-17T16:42:08.692Z,2.40
2018-05-17T16:44:36.473Z,1.73
2018-05-17T16:47:04.075Z,2.40
2018-05-17T16:49:31.772Z,2.08
2018-05-17T16:52:00.126Z,2.00
2018-05-17T16:54:27.764Z,2.50
2018-05-17T16:56:55.410Z,2.37
2018-05-17T16:59:22.969Z,2.15
2018-05-17T17:01:50.544Z,2.10
2018-05-17T17:04:18.137Z,2.05
2018-05-17T17:06:45.701Z,1.90
2018-05-17T17:09:13.371Z,2.67
2018-05-17T17:11:40.934Z,2.17
2018-05-17T17:14:08.537Z,1.92
2018-05-17T17:16:36.224Z,2.42
2018-05-17T17:19:04.607Z,2.22
2018-05-17T17:21:32.283Z,2.25
2018-05-17T17:24:00.766Z,2.30
2018-05-17T17:26:29.354Z,2.20
2018-05-17T17:28:56.969Z,1.90
2018-05-17T17:31:26.183Z,2.50
2018-05-17T17:33:53.985Z,2.47
2018-05-17T17:36:22.187Z,2.20
2018-05-17T17:38:49.977Z,2.03
2018-05-17T17:41:18.217Z,2.40
2018-05-17T17:43:46.807Z,4.60
2018-05-17T17:46:14.470Z,3.12
2018-05-17T17:48:42.128Z,2.28
2018-05-17T17:51:09.778Z,4.00
2018-05-17T17:53:37.369Z,4.53
2018-05-17T17:56:05.501Z,8.55
2018-05-17T17:58:34.418Z,6.07
2018-05-17T18:01:01.993Z,3.28
2018-05-17T18:03:29.745Z,2.28
2018-05-17T18:05:57.633Z,2.40
2018-05-17T18:08:25.274Z,7.18
2018-05-17T18:10:52.945Z,3.67
2018-05-17T18:13:20.674Z,3.33
2018-05-17T18:15:49.232Z,7.27
2018-05-17T18:18:16.860Z,6.18
2018-05-17T18:20:44.714Z,3.62
2018-05-17T18:23:12.390Z,26.92
2018-05-17T18:25:39.992Z,42.62
2018-05-17T18:28:07.600Z,17.97
2018-05-17T18:30:35.497Z,17.20
2018-05-17T18:33:03.096Z,5.57
2018-05-17T18:35:30.817Z,42.57
2018-05-17T18:37:58.450Z,72.73
2018-05-17T18:40:26.827Z,122.03
2018-05-17T18:42:55.242Z,7.37
2018-05-17T18:45:22.867Z,17.70
2018-05-17T18:47:50.577Z,54.80
2018-05-17T18:50:18.249Z,114.57
2018-05-17T18:52:45.877Z,46.30
2018-05-17T18:55:13.522Z,76.53
2018-05-17T18:57:41.464Z,60.20
2018-05-17T19:00:09.751Z,46.67
2018-05-17T19:02:52.319Z,28.17
2018-05-17T19:05:19.997Z,38.73
2018-05-17T19:07:47.582Z,46.97
2018-05-17T19:10:15.193Z,22.70
2018-05-17T19:12:42.824Z,11.40
2018-05-17T19:15:10.438Z,7.23
2018-05-17T19:17:39.131Z,19.70
2018-05-17T19:20:08.000Z,43.17
2018-05-17T19:22:36.418Z,29.80
2018-05-17T19:25:04.039Z,31.67
2018-05-17T19:27:33.829Z,16.60
2018-05-17T19:30:03.215Z,5.83
2018-05-17T19:32:30.873Z,33.83
2018-05-17T19:34:58.610Z,53.37
2018-05-17T19:37:29.160Z,26.50
2018-05-17T19:39:58.863Z,28.53
2018-05-17T19:42:26.502Z,24.60
2018-05-17T19:44:54.443Z,53.27
2018-05-17T19:47:22.167Z,70.60
2018-05-17T19:49:50.600Z,43.77
2018-05-17T19:52:18.254Z,23.77
2018-05-17T19:54:45.983Z,31.83
2018-05-17T19:57:13.757Z,40.70
2018-05-17T19:59:41.529Z,24.60
2018-05-17T20:02:11.033Z,6.87
2018-05-17T20:04:38.717Z,8.50
2018-05-17T20:07:06.402Z,20.63
2018-05-17T20:09:34.141Z,10.67
2018-05-17T20:12:02.518Z,12.10
2018-05-17T20:14:31.247Z,16.80
2018-05-17T20:16:59.024Z,13.00
2018-05-17T20:19:27.473Z,18.87
2018-05-17T20:21:56.028Z,12.97
2018-05-17T20:24:25.805Z,28.47
2018-05-17T20:26:54.488Z,28.83
2018-05-17T20:29:22.205Z,19.37
2018-05-17T20:31:50.261Z,12.43
2018-05-17T20:34:17.902Z,24.13
2018-05-17T20:36:46.347Z,26.90
2018-05-17T20:39:13.971Z,37.33
2018-05-17T20:41:41.964Z,22.77
2018-05-17T20:44:09.579Z,19.97
2018-05-17T20:46:37.754Z,19.87
2018-05-17T20:49:05.364Z,11.37
2018-05-17T20:51:32.993Z,10.30
2018-05-17T20:54:01.370Z,7.63
2018-05-17T20:56:29.804Z,6.70
2018-05-17T20:58:57.466Z,7.07
2018-05-17T21:01:25.889Z,7.00
2018-05-17T21:03:57.112Z,4.90
2018-05-17T21:06:24.838Z,5.03
2018-05-17T21:08:53.737Z,5.03
2018-05-17T21:11:21.350Z,6.73
2018-05-17T21:13:49.812Z,7.70
2018-05-17T21:16:17.454Z,7.90
2018-05-17T21:18:45.358Z,8.57
2018-05-17T21:21:13.070Z,6.37
2018-05-17T21:23:40.705Z,4.70
2018-05-17T21:26:08.341Z,4.47
2018-05-17T21:28:36.062Z,4.40
2018-05-17T21:31:04.466Z,4.33
2018-05-17T21:33:32.223Z,4.43
2018-05-17T21:36:00.015Z,3.90
2018-05-17T21:38:27.914Z,3.40
2018-05-17T21:40:55.626Z,4.17
2018-05-17T21:43:23.393Z,3.80
2018-05-17T21:45:51.459Z,4.00
2018-05-17T21:48:19.796Z,4.27
2018-05-17T21:50:47.400Z,4.63
2018-05-17T21:53:15.017Z,5.00
2018-05-17T21:55:42.924Z,6.70
2018-05-17T21:58:11.520Z,5.63
2018-05-17T22:00:39.857Z,4.73
2018-05-17T22:03:07.532Z,4.20
2018-05-17T22:05:35.276Z,4.20
2018-05-17T22:08:03.040Z,4.50
2018-05-17T22:10:30.742Z,3.70
2018-05-17T22:12:58.484Z,5.07
2018-05-17T22:15:26.187Z,4.80
2018-05-17T22:17:55.777Z,5.47
2018-05-17T22:20:23.513Z,6.20
2018-05-17T22:22:51.244Z,6.43
2018-05-17T22:25:18.867Z,6.53
2018-05-17T22:27:46.528Z,6.53
2018-05-17T22:30:14.426Z,4.30
2018-05-17T22:32:42.035Z,4.50
2018-05-17T22:35:09.711Z,4.20
2018-05-17T22:37:37.285Z,4.43
2018-05-17T22:40:04.912Z,3.60
2018-05-17T22:42:32.595Z,4.23
2018-05-17T22:45:00.339Z,5.00
2018-05-17T22:47:27.973Z,4.20
2018-05-17T22:49:56.505Z,3.57
2018-05-17T22:52:24.149Z,3.53
2018-05-17T22:54:51.830Z,4.40
2018-05-17T22:57:27.350Z,3.30
2018-05-17T22:59:55.838Z,4.07
2018-05-17T23:02:23.465Z,3.40
2018-05-17T23:04:51.104Z,4.47
2018-05-17T23:07:19.598Z,4.10
2018-05-17T23:09:48.350Z,4.30
2018-05-17T23:12:16.015Z,4.03
2018-05-17T23:14:44.439Z,3.60
2018-05-17T23:17:12.067Z,3.30
2018-05-17T23:19:39.709Z,3.70
2018-05-17T23:22:07.440Z,3.43
2018-05-17T23:24:35.087Z,5.73
2018-05-17T23:27:02.743Z,5.07
2018-05-17T23:29:30.349Z,5.17
2018-05-17T23:31:58.018Z,5.27
2018-05-17T23:34:26.402Z,3.63
2018-05-17T23:36:54.883Z,3.13
2018-05-17T23:39:22.512Z,4.23
2018-05-17T23:41:50.159Z,4.20
2018-05-17T23:44:17.786Z,3.70
2018-05-17T23:46:46.142Z,3.27
2018-05-17T23:49:13.800Z,2.83
2018-05-17T23:51:42.367Z,2.20
2018-05-17T23:54:09.963Z,2.27
2018-05-17T23:56:38.384Z,2.13
2018-05-17T23:59:05.976Z,2.10
